createdAt,value
2017-11-16T00:00:17.792Z,0
2017-11-16T00:00:58.351Z,0
2017-11-16T00:01:38.940Z,0
2017-11-16T00:02:19.521Z,0
2017-11-16T00:03:00.135Z,0
2017-11-16T00:03:40.704Z,0
2017-11-16T00:04:21.256Z,0
2017-11-16T00:05:01.812Z,0
2017-11-16T00:05:42.360Z,0
2017-11-16T00:06:22.928Z,0
2017-11-16T00:07:03.545Z,0
2017-11-16T00:07:44.116Z,0
2017-11-16T00:08:24.697Z,0
2017-11-16T00:09:05.271Z,0
2017-11-16T00:09:56.482Z,0
2017-11-16T00:10:37.085Z,0
2017-11-16T00:11:17.685Z,0
2017-11-16T00:11:58.332Z,0
2017-11-16T00:12:38.906Z,0
2017-11-16T00:13:19.542Z,0
2017-11-16T00:14:00.154Z,0
2017-11-16T00:14:40.774Z,0
2017-11-16T00:15:21.319Z,0
2017-11-16T00:16:08.459Z,0
2017-11-16T00:18:06.164Z,0
2017-11-16T00:18:46.735Z,0
2017-11-16T00:19:27.317Z,0
2017-11-16T00:20:07.884Z,0
2017-11-16T00:20:48.460Z,0
2017-11-16T00:21:29.083Z,0
2017-11-16T00:22:09.664Z,0
2017-11-16T00:22:50.260Z,0
2017-11-16T00:23:30.833Z,0
2017-11-16T00:25:43.624Z,0
2017-11-16T00:26:24.204Z,0
2017-11-16T00:27:04.807Z,0
2017-11-16T00:27:45.377Z,0
2017-11-16T00:28:25.952Z,0
2017-11-16T00:29:06.551Z,0
2017-11-16T00:31:39.781Z,0
2017-11-16T00:32:20.354Z,0
2017-11-16T00:33:00.923Z,0
2017-11-16T00:33:41.493Z,0
2017-11-16T00:34:22.189Z,0
2017-11-16T00:35:02.816Z,0
2017-11-16T00:35:43.399Z,0
2017-11-16T00:36:24.002Z,0
2017-11-16T00:37:04.610Z,0
2017-11-16T00:37:45.192Z,0
2017-11-16T00:38:25.755Z,0
2017-11-16T00:39:06.319Z,0
2017-11-16T00:39:46.902Z,0
2017-11-16T00:40:27.497Z,0
2017-11-16T00:41:08.063Z,0
2017-11-16T00:41:48.638Z,0
2017-11-16T00:42:29.218Z,0
2017-11-16T00:43:09.788Z,0
2017-11-16T00:43:50.363Z,0
2017-11-16T00:44:30.940Z,0
2017-11-16T00:45:11.493Z,0
2017-11-16T00:45:52.060Z,0
2017-11-16T00:46:32.641Z,0
2017-11-16T00:47:13.227Z,0
2017-11-16T00:47:53.802Z,0
2017-11-16T00:48:34.409Z,0
2017-11-16T00:49:14.969Z,0
2017-11-16T00:49:55.631Z,0
2017-11-16T00:50:36.206Z,0
2017-11-16T00:51:16.767Z,0
2017-11-16T00:51:57.330Z,0
2017-11-16T00:52:37.893Z,0
2017-11-16T00:53:18.452Z,0
2017-11-16T00:53:59.016Z,0
2017-11-16T00:54:39.595Z,0
2017-11-16T00:55:20.156Z,0
2017-11-16T00:56:00.725Z,0
2017-11-16T00:56:41.323Z,0
2017-11-16T00:57:21.870Z,0
2017-11-16T00:58:02.438Z,0
2017-11-16T00:58:43.015Z,0
2017-11-16T00:59:23.710Z,0
2017-11-16T01:00:04.340Z,0
2017-11-16T01:00:44.925Z,0
2017-11-16T01:01:25.522Z,0
2017-11-16T01:02:06.129Z,0
2017-11-16T01:02:46.705Z,0
2017-11-16T01:03:27.287Z,0
2017-11-16T01:04:07.881Z,0
2017-11-16T01:04:48.532Z,0
2017-11-16T01:05:29.105Z,0
2017-11-16T01:06:09.762Z,0
2017-11-16T01:06:50.422Z,0
2017-11-16T01:07:30.967Z,0
2017-11-16T01:08:11.566Z,0
2017-11-16T01:08:52.164Z,0
2017-11-16T01:09:32.759Z,0
2017-11-16T01:10:13.334Z,0
2017-11-16T01:10:53.945Z,0
2017-11-16T01:11:34.537Z,0
2017-11-16T01:12:15.132Z,0
2017-11-16T01:12:55.751Z,0
2017-11-16T01:13:36.355Z,0
2017-11-16T01:14:16.974Z,0
2017-11-16T01:14:57.577Z,0
2017-11-16T01:15:38.228Z,0
2017-11-16T01:16:18.808Z,0
2017-11-16T01:16:59.442Z,0
2017-11-16T01:17:40.015Z,0
2017-11-16T01:18:20.592Z,0
2017-11-16T01:19:01.191Z,0
2017-11-16T01:19:41.795Z,0
2017-11-16T01:20:22.444Z,0
2017-11-16T01:21:02.999Z,0
2017-11-16T01:21:43.609Z,0
2017-11-16T01:22:24.234Z,0
2017-11-16T01:23:04.825Z,0
2017-11-16T01:23:45.420Z,0
2017-11-16T01:24:26.060Z,0
2017-11-16T01:25:06.635Z,0
2017-11-16T01:25:47.254Z,0
2017-11-16T01:26:27.823Z,0
2017-11-16T01:27:08.504Z,0
2017-11-16T01:27:49.063Z,0
2017-11-16T01:28:29.671Z,0
2017-11-16T01:29:10.289Z,0
2017-11-16T01:29:50.893Z,0
2017-11-16T01:30:31.484Z,0
2017-11-16T01:31:12.087Z,0
2017-11-16T01:31:52.700Z,0
2017-11-16T01:32:33.300Z,0
2017-11-16T01:33:13.894Z,0
2017-11-16T01:33:54.490Z,0
2017-11-16T01:34:35.252Z,0
2017-11-16T01:35:15.723Z,0
2017-11-16T01:35:56.311Z,0
2017-11-16T01:36:36.901Z,0
2017-11-16T01:37:17.543Z,0
2017-11-16T01:37:58.122Z,0
2017-11-16T01:38:38.707Z,0
2017-11-16T01:39:19.316Z,0
2017-11-16T01:39:59.930Z,0
2017-11-16T01:40:40.538Z,0
2017-11-16T01:41:21.117Z,0
2017-11-16T01:42:01.708Z,0
2017-11-16T01:42:42.284Z,0
2017-11-16T01:43:22.879Z,0
2017-11-16T01:44:03.463Z,0
2017-11-16T01:44:44.029Z,0
2017-11-16T01:45:24.637Z,0
2017-11-16T01:46:05.235Z,0
2017-11-16T01:46:45.828Z,0
2017-11-16T01:47:26.406Z,0
2017-11-16T01:48:06.985Z,0
2017-11-16T01:48:47.578Z,0
2017-11-16T01:49:28.219Z,0
2017-11-16T01:50:08.821Z,0
2017-11-16T01:50:49.380Z,0
2017-11-16T01:51:29.951Z,0
2017-11-16T01:52:10.511Z,0
2017-11-16T01:52:51.105Z,0
2017-11-16T01:53:31.678Z,0
2017-11-16T01:54:12.249Z,0
2017-11-16T01:54:52.844Z,0
2017-11-16T01:55:33.424Z,0
2017-11-16T01:56:14.018Z,0
2017-11-16T01:56:54.648Z,0
2017-11-16T01:57:35.324Z,0
2017-11-16T01:58:15.900Z,0
2017-11-16T01:58:56.472Z,0
2017-11-16T01:59:37.133Z,0
2017-11-16T02:00:17.710Z,0
2017-11-16T02:00:58.274Z,0
2017-11-16T02:01:38.862Z,0
2017-11-16T02:02:19.474Z,0
2017-11-16T02:03:00.044Z,0
2017-11-16T02:03:40.616Z,0
2017-11-16T02:04:21.194Z,0
2017-11-16T02:05:01.771Z,0
2017-11-16T02:05:42.432Z,0
2017-11-16T02:06:23.009Z,0
2017-11-16T02:07:03.602Z,0
2017-11-16T02:07:44.170Z,0
2017-11-16T02:08:24.816Z,0
2017-11-16T02:09:05.382Z,0
2017-11-16T02:09:45.971Z,0
2017-11-16T02:10:26.616Z,0
2017-11-16T02:11:07.161Z,0
2017-11-16T02:11:47.755Z,0
2017-11-16T02:12:28.336Z,0
2017-11-16T02:13:08.900Z,0
2017-11-16T02:13:49.449Z,0
2017-11-16T02:14:30.018Z,0
2017-11-16T02:15:10.584Z,0
2017-11-16T02:15:51.159Z,0
2017-11-16T02:16:32.130Z,0
2017-11-16T02:17:13.064Z,0
2017-11-16T02:17:53.590Z,0
2017-11-16T02:18:34.191Z,0
2017-11-16T02:19:14.764Z,0
2017-11-16T02:19:55.340Z,0
2017-11-16T02:20:35.930Z,0
2017-11-16T02:21:16.541Z,0
2017-11-16T02:21:57.136Z,0
2017-11-16T02:22:37.786Z,0
2017-11-16T02:23:18.410Z,0
2017-11-16T02:23:58.980Z,0
2017-11-16T02:24:39.576Z,0
2017-11-16T02:25:20.146Z,0
2017-11-16T02:26:00.769Z,0
2017-11-16T02:26:41.303Z,0
2017-11-16T02:27:21.906Z,0
2017-11-16T02:28:02.484Z,0
2017-11-16T02:28:43.086Z,0
2017-11-16T02:29:23.645Z,0
2017-11-16T02:30:04.234Z,0
2017-11-16T02:30:44.829Z,0
2017-11-16T02:31:25.560Z,0
2017-11-16T02:32:06.176Z,0
2017-11-16T02:32:46.767Z,0
2017-11-16T02:33:27.358Z,0
2017-11-16T02:34:07.989Z,0
2017-11-16T02:34:48.559Z,0
2017-11-16T02:35:29.233Z,0
2017-11-16T02:36:09.804Z,0
2017-11-16T02:36:50.381Z,0
2017-11-16T02:37:30.967Z,0
2017-11-16T02:38:11.541Z,0
2017-11-16T02:38:52.152Z,0
2017-11-16T02:39:32.708Z,0
2017-11-16T02:40:13.275Z,0
2017-11-16T02:40:53.850Z,0
2017-11-16T02:41:34.439Z,0
2017-11-16T02:42:15.007Z,0
2017-11-16T02:42:55.601Z,0
2017-11-16T02:43:36.199Z,0
2017-11-16T02:44:16.785Z,0
2017-11-16T02:44:57.359Z,0
2017-11-16T02:45:37.922Z,0
2017-11-16T02:46:18.489Z,0
2017-11-16T02:46:59.078Z,0
2017-11-16T02:47:39.681Z,0
2017-11-16T02:48:20.242Z,0
2017-11-16T02:49:00.827Z,0
2017-11-16T02:49:41.422Z,0
2017-11-16T02:50:22.023Z,0
2017-11-16T02:51:02.609Z,0
2017-11-16T02:51:43.186Z,0
2017-11-16T02:52:23.772Z,0
2017-11-16T02:53:04.324Z,0
2017-11-16T02:53:44.898Z,0
2017-11-16T02:54:25.473Z,0
2017-11-16T02:55:06.072Z,0
2017-11-16T02:55:46.689Z,0
2017-11-16T02:56:27.266Z,0
2017-11-16T02:57:07.854Z,0
2017-11-16T02:57:48.421Z,0
2017-11-16T02:58:28.979Z,0
2017-11-16T02:59:09.606Z,0
2017-11-16T02:59:50.179Z,0
2017-11-16T03:00:30.753Z,0
2017-11-16T03:01:11.386Z,0
2017-11-16T03:01:51.972Z,0
2017-11-16T03:02:32.565Z,0
2017-11-16T03:03:13.178Z,0
2017-11-16T03:03:53.757Z,0
2017-11-16T03:04:34.389Z,0
2017-11-16T03:05:14.945Z,0
2017-11-16T03:05:55.540Z,0
2017-11-16T03:06:36.119Z,0
2017-11-16T03:07:16.762Z,0
2017-11-16T03:07:57.331Z,0
2017-11-16T03:08:37.911Z,0
2017-11-16T03:09:18.524Z,0
2017-11-16T03:09:59.088Z,0
2017-11-16T03:10:39.700Z,0
2017-11-16T03:11:20.284Z,0
2017-11-16T03:12:00.866Z,0
2017-11-16T03:12:41.425Z,0
2017-11-16T03:13:21.996Z,0
2017-11-16T03:14:02.572Z,0
2017-11-16T03:14:43.164Z,0
2017-11-16T03:15:23.762Z,0
2017-11-16T03:16:04.383Z,0
2017-11-16T03:16:44.944Z,0
2017-11-16T03:17:25.516Z,0
2017-11-16T03:18:06.095Z,0
2017-11-16T03:18:46.689Z,0
2017-11-16T03:19:27.271Z,0
2017-11-16T03:20:07.850Z,0
2017-11-16T03:20:48.430Z,0
2017-11-16T03:21:28.999Z,0
2017-11-16T03:22:09.597Z,0
2017-11-16T03:22:50.180Z,0
2017-11-16T03:23:30.741Z,0
2017-11-16T03:24:11.332Z,0
2017-11-16T03:24:51.904Z,0
2017-11-16T03:25:32.582Z,0
2017-11-16T03:26:13.152Z,0
2017-11-16T03:26:53.783Z,0
2017-11-16T03:27:34.334Z,0
2017-11-16T03:28:14.923Z,0
2017-11-16T03:28:55.522Z,0
2017-11-16T03:29:36.114Z,0
2017-11-16T03:30:16.680Z,0
2017-11-16T03:30:57.257Z,0
2017-11-16T03:31:37.827Z,0
2017-11-16T03:32:18.387Z,0
2017-11-16T03:32:58.955Z,0
2017-11-16T03:33:39.555Z,0
2017-11-16T03:34:20.133Z,0
2017-11-16T03:35:00.707Z,0
2017-11-16T03:35:41.287Z,0
2017-11-16T03:36:21.880Z,0
2017-11-16T03:37:02.481Z,0
2017-11-16T03:37:43.023Z,0
2017-11-16T03:38:23.648Z,0
2017-11-16T03:39:04.230Z,0
2017-11-16T03:39:44.845Z,0
2017-11-16T03:40:25.409Z,0
2017-11-16T03:41:05.991Z,0
2017-11-16T03:41:46.556Z,0
2017-11-16T03:42:27.130Z,0
2017-11-16T03:43:07.709Z,0
2017-11-16T03:43:48.352Z,0
2017-11-16T03:44:28.924Z,0
2017-11-16T03:45:09.492Z,0
2017-11-16T03:45:50.113Z,0
2017-11-16T03:46:30.691Z,0
2017-11-16T03:47:11.256Z,0
2017-11-16T03:47:51.972Z,0
2017-11-16T03:48:32.559Z,0
2017-11-16T03:49:13.160Z,0
2017-11-16T03:49:53.751Z,0
2017-11-16T03:50:34.323Z,0
2017-11-16T03:51:14.889Z,0
2017-11-16T03:51:55.461Z,0
2017-11-16T03:52:36.036Z,0
2017-11-16T03:53:16.618Z,0
2017-11-16T03:53:57.179Z,0
2017-11-16T03:54:37.770Z,0
2017-11-16T03:55:18.374Z,0
2017-11-16T03:55:58.977Z,0
2017-11-16T03:56:39.566Z,0
2017-11-16T03:57:20.120Z,0
2017-11-16T03:58:00.709Z,0
2017-11-16T03:58:41.270Z,0
2017-11-16T03:59:21.857Z,0
2017-11-16T04:00:02.436Z,0
2017-11-16T04:00:43.033Z,0
2017-11-16T04:01:23.709Z,0
2017-11-16T04:02:04.285Z,0
2017-11-16T04:02:44.888Z,0
2017-11-16T04:03:25.467Z,0
2017-11-16T04:04:06.073Z,0
2017-11-16T04:04:46.681Z,0
2017-11-16T04:05:27.316Z,0
2017-11-16T04:06:07.958Z,0
2017-11-16T04:06:48.556Z,0
2017-11-16T04:07:29.188Z,0
2017-11-16T04:08:09.788Z,0
2017-11-16T04:08:50.373Z,0
2017-11-16T04:09:30.958Z,0
2017-11-16T04:10:11.580Z,0
2017-11-16T04:10:52.161Z,0
2017-11-16T04:11:32.721Z,0
2017-11-16T04:12:13.306Z,0
2017-11-16T04:12:53.883Z,0
2017-11-16T04:13:34.449Z,0
2017-11-16T04:14:15.066Z,0
2017-11-16T04:14:55.638Z,0
2017-11-16T04:15:36.205Z,0
2017-11-16T04:16:16.773Z,0
2017-11-16T04:16:57.359Z,0
2017-11-16T04:17:37.923Z,0
2017-11-16T04:18:18.529Z,0
2017-11-16T04:18:59.109Z,0
2017-11-16T04:19:39.691Z,0
2017-11-16T04:20:20.268Z,0
2017-11-16T04:21:00.845Z,0
2017-11-16T04:21:41.404Z,0
2017-11-16T04:22:21.979Z,0
2017-11-16T04:23:02.547Z,0
2017-11-16T04:23:43.103Z,0
2017-11-16T04:24:23.694Z,0
2017-11-16T04:25:04.247Z,0
2017-11-16T04:25:44.823Z,0
2017-11-16T04:26:25.404Z,0
2017-11-16T04:27:05.968Z,0
2017-11-16T04:27:46.574Z,0
2017-11-16T04:28:27.130Z,0
2017-11-16T04:29:07.704Z,0
2017-11-16T04:29:48.289Z,0
2017-11-16T04:30:28.869Z,0
2017-11-16T04:31:09.461Z,0
2017-11-16T04:31:50.033Z,0
2017-11-16T04:32:30.625Z,0
2017-11-16T04:33:11.204Z,0
2017-11-16T04:33:51.796Z,0
2017-11-16T04:34:32.342Z,0
2017-11-16T04:35:12.903Z,0
2017-11-16T04:35:53.503Z,0
2017-11-16T04:36:34.073Z,0
2017-11-16T04:37:14.683Z,0
2017-11-16T04:37:55.202Z,0
2017-11-16T04:38:35.782Z,0
2017-11-16T04:39:16.373Z,0
2017-11-16T04:39:56.937Z,0
2017-11-16T04:40:37.525Z,0
2017-11-16T04:41:18.093Z,0
2017-11-16T04:41:58.664Z,0
2017-11-16T04:42:39.233Z,0
2017-11-16T04:43:19.848Z,0
2017-11-16T04:44:00.430Z,0
2017-11-16T04:44:41.008Z,0
2017-11-16T04:45:21.585Z,0
2017-11-16T04:46:02.156Z,0
2017-11-16T04:46:42.759Z,0
2017-11-16T04:47:23.383Z,0
2017-11-16T04:48:03.975Z,0
2017-11-16T04:48:44.865Z,0
2017-11-16T04:49:25.480Z,0
2017-11-16T04:50:06.580Z,0
2017-11-16T04:50:47.160Z,0
2017-11-16T04:51:27.755Z,0
2017-11-16T04:52:08.343Z,0
2017-11-16T04:52:49.010Z,0
2017-11-16T04:53:29.615Z,0
2017-11-16T04:54:10.259Z,0
2017-11-16T04:54:50.858Z,0
2017-11-16T04:55:31.464Z,0
2017-11-16T04:56:12.072Z,0
2017-11-16T04:56:52.661Z,0
2017-11-16T04:57:33.251Z,0
2017-11-16T04:58:13.873Z,0
2017-11-16T04:58:54.528Z,0
2017-11-16T04:59:35.121Z,0
2017-11-16T05:00:15.767Z,0
2017-11-16T05:00:56.388Z,0
2017-11-16T05:01:37.016Z,0
2017-11-16T05:02:17.641Z,0
2017-11-16T05:02:58.225Z,0
2017-11-16T05:03:38.827Z,0
2017-11-16T05:04:19.431Z,0
2017-11-16T05:05:00.047Z,0
2017-11-16T05:05:40.636Z,0
2017-11-16T05:06:21.213Z,0
2017-11-16T05:07:01.774Z,0
2017-11-16T05:07:42.615Z,0
2017-11-16T05:08:23.264Z,0
2017-11-16T05:09:03.864Z,0
2017-11-16T05:09:44.482Z,0
2017-11-16T05:10:25.064Z,0
2017-11-16T05:11:05.656Z,0
2017-11-16T05:11:46.276Z,0
2017-11-16T05:12:26.910Z,0
2017-11-16T05:13:07.483Z,0
2017-11-16T05:13:48.062Z,0
2017-11-16T05:14:28.699Z,0
2017-11-16T05:15:09.272Z,0
2017-11-16T05:15:49.941Z,0
2017-11-16T05:16:30.509Z,0
2017-11-16T05:17:11.106Z,0
2017-11-16T05:17:51.694Z,0
2017-11-16T05:18:32.327Z,0
2017-11-16T05:19:12.885Z,0
2017-11-16T05:19:53.489Z,0
2017-11-16T05:20:34.042Z,0
2017-11-16T05:21:14.623Z,0
2017-11-16T05:21:55.248Z,0
2017-11-16T05:22:35.849Z,0
2017-11-16T05:23:16.437Z,0
2017-11-16T05:23:57.025Z,0
2017-11-16T05:24:37.611Z,0
2017-11-16T05:25:18.215Z,0
2017-11-16T05:25:58.813Z,0
2017-11-16T05:26:39.378Z,0
2017-11-16T05:27:19.966Z,0
2017-11-16T05:28:00.548Z,0
2017-11-16T05:28:41.126Z,0
2017-11-16T05:29:21.714Z,0
2017-11-16T05:30:02.286Z,0
2017-11-16T05:30:42.872Z,0
2017-11-16T05:31:23.478Z,0
2017-11-16T05:32:04.154Z,0
2017-11-16T05:32:44.743Z,0
2017-11-16T05:33:25.365Z,0
2017-11-16T05:34:05.941Z,0
2017-11-16T05:34:46.515Z,0
2017-11-16T05:35:27.088Z,0
2017-11-16T05:36:07.665Z,0
2017-11-16T05:36:48.235Z,0
2017-11-16T05:37:28.814Z,0
2017-11-16T05:38:09.404Z,0
2017-11-16T05:38:49.967Z,0
2017-11-16T05:39:30.602Z,0
2017-11-16T05:40:11.196Z,0
2017-11-16T05:40:51.747Z,0
2017-11-16T05:41:32.394Z,0
2017-11-16T05:42:12.957Z,0
2017-11-16T05:42:53.581Z,0
2017-11-16T05:43:34.232Z,0
2017-11-16T05:44:14.827Z,0
2017-11-16T05:44:55.402Z,0
2017-11-16T05:45:36.039Z,0
2017-11-16T05:46:16.847Z,0
2017-11-16T05:46:57.471Z,0
2017-11-16T05:47:38.043Z,0
2017-11-16T05:48:18.647Z,0
2017-11-16T05:48:59.236Z,0
2017-11-16T05:49:39.871Z,0
2017-11-16T05:50:20.439Z,0
2017-11-16T05:51:01.065Z,0
2017-11-16T05:51:41.646Z,0
2017-11-16T05:52:22.222Z,0
2017-11-16T05:53:02.808Z,0
2017-11-16T05:53:43.408Z,0
2017-11-16T05:54:23.983Z,0
2017-11-16T05:55:04.557Z,0
2017-11-16T05:55:45.130Z,0
2017-11-16T05:56:25.706Z,0
2017-11-16T05:57:06.287Z,0
2017-11-16T05:57:46.889Z,0
2017-11-16T05:58:27.883Z,0
2017-11-16T05:59:08.473Z,0
2017-11-16T05:59:49.053Z,0
2017-11-16T06:00:29.670Z,0
2017-11-16T06:01:10.283Z,0
2017-11-16T06:01:50.902Z,0
2017-11-16T06:02:31.475Z,0
2017-11-16T06:03:12.049Z,0
2017-11-16T06:03:52.647Z,0
2017-11-16T06:04:33.226Z,0
2017-11-16T06:05:13.837Z,0
2017-11-16T06:05:54.432Z,0
2017-11-16T06:06:35.129Z,0
2017-11-16T06:07:15.837Z,0
2017-11-16T06:07:56.410Z,4
2017-11-16T06:08:37.022Z,4
2017-11-16T06:09:17.593Z,0
2017-11-16T06:09:58.164Z,0
2017-11-16T06:10:38.816Z,0
2017-11-16T06:11:19.752Z,4
2017-11-16T06:12:00.608Z,0
2017-11-16T06:12:41.163Z,4
2017-11-16T06:13:22.220Z,4
2017-11-16T06:14:03.085Z,4
2017-11-16T06:14:44.031Z,4
2017-11-16T06:15:24.968Z,8
2017-11-16T06:16:06.050Z,4
2017-11-16T06:16:46.660Z,8
2017-11-16T06:17:27.620Z,4
2017-11-16T06:18:08.365Z,8
2017-11-16T06:18:49.099Z,4
2017-11-16T06:19:29.650Z,8
2017-11-16T06:20:10.283Z,8
2017-11-16T06:20:50.893Z,12
2017-11-16T06:21:31.519Z,8
2017-11-16T06:22:12.105Z,12
2017-11-16T06:22:52.677Z,12
2017-11-16T06:23:33.446Z,12
2017-11-16T06:24:13.993Z,12
2017-11-16T06:24:54.536Z,16
2017-11-16T06:25:35.134Z,16
2017-11-16T06:26:15.794Z,16
2017-11-16T06:26:56.350Z,16
2017-11-16T06:27:36.927Z,20
2017-11-16T06:28:17.512Z,20
2017-11-16T06:28:58.123Z,20
2017-11-16T06:29:38.695Z,24
2017-11-16T06:30:19.264Z,28
2017-11-16T06:30:59.868Z,28
2017-11-16T06:31:40.481Z,28
2017-11-16T06:32:21.086Z,32
2017-11-16T06:33:01.694Z,36
2017-11-16T06:33:42.304Z,40
2017-11-16T06:34:22.998Z,36
2017-11-16T06:35:03.850Z,44
2017-11-16T06:35:44.549Z,48
2017-11-16T06:36:25.157Z,52
2017-11-16T06:37:05.849Z,56
2017-11-16T06:37:46.452Z,60
2017-11-16T06:38:27.085Z,64
2017-11-16T06:39:07.719Z,72
2017-11-16T06:39:48.337Z,76
2017-11-16T06:40:29.354Z,80
2017-11-16T06:41:09.927Z,80
2017-11-16T06:41:50.558Z,80
2017-11-16T06:42:31.259Z,84
2017-11-16T06:43:12.523Z,84
2017-11-16T06:43:53.560Z,88
2017-11-16T06:44:34.804Z,88
2017-11-16T06:45:15.452Z,92
2017-11-16T06:45:56.146Z,96
2017-11-16T06:46:36.798Z,104
2017-11-16T06:47:17.364Z,108
2017-11-16T06:47:58.214Z,104
2017-11-16T06:48:38.905Z,104
2017-11-16T06:49:19.529Z,104
2017-11-16T06:50:00.127Z,104
2017-11-16T06:50:40.846Z,104
2017-11-16T06:51:21.482Z,104
2017-11-16T06:52:02.140Z,104
2017-11-16T06:52:42.754Z,112
2017-11-16T06:53:23.388Z,116
2017-11-16T06:54:03.986Z,120
2017-11-16T06:54:44.560Z,120
2017-11-16T06:55:25.231Z,124
2017-11-16T06:56:05.794Z,124
2017-11-16T06:56:46.399Z,124
2017-11-16T06:57:26.989Z,124
2017-11-16T06:58:07.604Z,120
2017-11-16T06:58:48.268Z,116
2017-11-16T06:59:29.203Z,116
2017-11-16T07:00:09.795Z,112
2017-11-16T07:00:50.380Z,112
2017-11-16T07:01:30.971Z,116
2017-11-16T07:02:11.532Z,116
2017-11-16T07:02:52.119Z,120
2017-11-16T07:03:32.732Z,124
2017-11-16T07:04:13.370Z,124
2017-11-16T07:04:53.950Z,128
2017-11-16T07:05:34.536Z,132
2017-11-16T07:06:15.111Z,140
2017-11-16T07:06:55.705Z,140
2017-11-16T07:07:36.285Z,144
2017-11-16T07:08:16.907Z,156
2017-11-16T07:08:57.496Z,168
2017-11-16T07:09:38.087Z,176
2017-11-16T07:10:18.660Z,180
2017-11-16T07:10:59.247Z,184
2017-11-16T07:11:39.870Z,188
2017-11-16T07:12:20.437Z,184
2017-11-16T07:13:01.021Z,192
2017-11-16T07:13:41.645Z,196
2017-11-16T07:14:22.284Z,208
2017-11-16T07:15:02.872Z,212
2017-11-16T07:15:43.480Z,228
2017-11-16T07:16:24.065Z,236
2017-11-16T07:17:04.660Z,240
2017-11-16T07:17:45.268Z,244
2017-11-16T07:18:25.857Z,252
2017-11-16T07:19:06.446Z,260
2017-11-16T07:19:47.037Z,260
2017-11-16T07:20:27.726Z,252
2017-11-16T07:21:08.291Z,256
2017-11-16T07:21:48.912Z,260
2017-11-16T07:22:29.517Z,268
2017-11-16T07:23:10.110Z,288
2017-11-16T07:23:50.748Z,300
2017-11-16T07:24:31.377Z,296
2017-11-16T07:25:11.973Z,300
2017-11-16T07:25:52.571Z,316
2017-11-16T07:26:33.442Z,320
2017-11-16T07:27:14.063Z,328
2017-11-16T07:27:54.660Z,340
2017-11-16T07:28:35.316Z,348
2017-11-16T07:29:15.930Z,356
2017-11-16T07:29:56.528Z,344
2017-11-16T07:30:37.097Z,328
2017-11-16T07:31:17.698Z,332
2017-11-16T07:31:58.312Z,332
2017-11-16T07:32:38.935Z,332
2017-11-16T07:33:19.572Z,340
2017-11-16T07:34:00.203Z,364
2017-11-16T07:34:40.838Z,376
2017-11-16T07:35:21.422Z,392
2017-11-16T07:36:01.997Z,404
2017-11-16T07:36:42.597Z,412
2017-11-16T07:37:23.212Z,432
2017-11-16T07:38:04.048Z,428
2017-11-16T07:38:44.655Z,428
2017-11-16T07:39:25.335Z,432
2017-11-16T07:40:05.930Z,420
2017-11-16T07:40:46.524Z,412
2017-11-16T07:41:27.104Z,392
2017-11-16T07:42:07.721Z,368
2017-11-16T07:42:48.289Z,364
2017-11-16T07:43:28.877Z,372
2017-11-16T07:44:09.469Z,388
2017-11-16T07:44:50.121Z,384
2017-11-16T07:45:30.715Z,396
2017-11-16T07:46:11.349Z,408
2017-11-16T07:46:51.935Z,424
2017-11-16T07:47:32.564Z,456
2017-11-16T07:48:16.384Z,484
2017-11-16T07:48:57.001Z,496
2017-11-16T07:49:37.624Z,500
2017-11-16T07:50:18.234Z,480
2017-11-16T07:50:58.808Z,460
2017-11-16T07:51:39.423Z,440
2017-11-16T07:52:20.035Z,432
2017-11-16T07:53:00.689Z,408
2017-11-16T07:53:41.312Z,384
2017-11-16T07:54:21.906Z,376
2017-11-16T07:55:02.499Z,368
2017-11-16T07:55:43.134Z,360
2017-11-16T07:56:23.740Z,352
2017-11-16T07:57:04.344Z,340
2017-11-16T07:57:44.948Z,336
2017-11-16T07:58:25.562Z,348
2017-11-16T07:59:06.147Z,376
2017-11-16T07:59:46.732Z,392
2017-11-16T08:00:27.363Z,412
2017-11-16T08:01:07.966Z,424
2017-11-16T08:01:48.581Z,448
2017-11-16T08:02:29.170Z,488
2017-11-16T08:03:09.769Z,536
2017-11-16T08:03:50.348Z,580
2017-11-16T08:04:30.949Z,596
2017-11-16T08:05:11.543Z,612
2017-11-16T08:05:52.239Z,588
2017-11-16T08:06:32.908Z,548
2017-11-16T08:07:13.525Z,532
2017-11-16T08:07:54.130Z,524
2017-11-16T08:08:34.735Z,528
2017-11-16T08:09:15.330Z,516
2017-11-16T08:09:55.932Z,536
2017-11-16T08:10:36.537Z,552
2017-11-16T08:11:17.194Z,544
2017-11-16T08:11:57.774Z,568
2017-11-16T08:12:38.364Z,576
2017-11-16T08:13:19.038Z,588
2017-11-16T08:13:59.640Z,596
2017-11-16T08:14:40.322Z,612
2017-11-16T08:15:20.921Z,616
2017-11-16T08:16:01.552Z,608
2017-11-16T08:16:42.188Z,608
2017-11-16T08:17:22.779Z,580
2017-11-16T08:18:03.619Z,552
2017-11-16T08:18:44.239Z,552
2017-11-16T08:19:24.843Z,540
2017-11-16T08:20:05.470Z,528
2017-11-16T08:20:46.072Z,500
2017-11-16T08:21:26.670Z,480
2017-11-16T08:22:07.267Z,468
2017-11-16T08:22:47.890Z,476
2017-11-16T08:23:28.504Z,480
2017-11-16T08:24:09.109Z,460
2017-11-16T08:24:49.732Z,440
2017-11-16T08:25:30.297Z,444
2017-11-16T08:26:10.911Z,444
2017-11-16T08:26:51.553Z,444
2017-11-16T08:27:32.834Z,448
2017-11-16T08:28:13.332Z,464
2017-11-16T08:28:53.977Z,468
2017-11-16T08:29:34.602Z,464
2017-11-16T08:30:15.222Z,456
2017-11-16T08:30:55.818Z,456
2017-11-16T08:31:36.439Z,472
2017-11-16T08:32:17.047Z,456
2017-11-16T08:32:57.669Z,472
2017-11-16T08:33:38.281Z,476
2017-11-16T08:34:18.895Z,472
2017-11-16T08:34:59.513Z,476
2017-11-16T08:35:40.115Z,464
2017-11-16T08:36:20.726Z,464
2017-11-16T08:37:01.329Z,444
2017-11-16T08:37:41.940Z,428
2017-11-16T08:38:22.565Z,428
2017-11-16T08:39:03.168Z,436
2017-11-16T08:39:43.827Z,432
2017-11-16T08:40:24.424Z,432
2017-11-16T08:41:05.020Z,436
2017-11-16T08:41:45.674Z,456
2017-11-16T08:42:26.263Z,476
2017-11-16T08:43:06.875Z,492
2017-11-16T08:43:47.480Z,508
2017-11-16T08:44:28.080Z,528
2017-11-16T08:45:08.666Z,524
2017-11-16T08:45:49.274Z,504
2017-11-16T08:46:29.906Z,476
2017-11-16T08:47:10.503Z,476
2017-11-16T08:47:51.115Z,476
2017-11-16T08:48:31.701Z,468
2017-11-16T08:49:12.327Z,460
2017-11-16T08:49:52.920Z,476
2017-11-16T08:50:33.624Z,472
2017-11-16T08:51:14.292Z,432
2017-11-16T08:51:54.847Z,428
2017-11-16T08:52:35.486Z,432
2017-11-16T08:53:16.069Z,428
2017-11-16T08:53:56.708Z,424
2017-11-16T08:54:37.338Z,440
2017-11-16T08:55:17.982Z,468
2017-11-16T08:55:58.599Z,492
2017-11-16T08:56:39.234Z,484
2017-11-16T08:57:19.879Z,472
2017-11-16T08:58:00.496Z,468
2017-11-16T08:58:41.075Z,444
2017-11-16T08:59:21.680Z,420
2017-11-16T09:00:02.282Z,408
2017-11-16T09:00:42.885Z,424
2017-11-16T09:01:23.480Z,436
2017-11-16T09:02:04.074Z,436
2017-11-16T09:02:44.691Z,424
2017-11-16T09:03:25.296Z,428
2017-11-16T09:04:05.896Z,460
2017-11-16T09:04:46.539Z,480
2017-11-16T09:05:27.152Z,504
2017-11-16T09:06:07.768Z,536
2017-11-16T09:06:48.346Z,560
2017-11-16T09:07:28.981Z,588
2017-11-16T09:08:09.581Z,576
2017-11-16T09:08:50.164Z,572
2017-11-16T09:09:30.783Z,576
2017-11-16T09:10:11.382Z,592
2017-11-16T09:10:52.051Z,580
2017-11-16T09:11:32.596Z,560
2017-11-16T09:12:13.218Z,516
2017-11-16T09:12:53.803Z,480
2017-11-16T09:13:34.422Z,476
2017-11-16T09:14:15.031Z,492
2017-11-16T09:14:55.649Z,520
2017-11-16T09:15:36.264Z,552
2017-11-16T09:16:16.840Z,600
2017-11-16T09:16:57.459Z,652
2017-11-16T09:17:38.045Z,716
2017-11-16T09:18:18.604Z,788
2017-11-16T09:18:59.306Z,880
2017-11-16T09:19:39.904Z,976
2017-11-16T09:20:20.474Z,1032
2017-11-16T09:21:01.049Z,1040
2017-11-16T09:21:41.621Z,1036
2017-11-16T09:22:22.175Z,1040
2017-11-16T09:23:02.772Z,1092
2017-11-16T09:23:43.350Z,1136
2017-11-16T09:24:23.919Z,1180
2017-11-16T09:25:04.575Z,1220
2017-11-16T09:25:45.164Z,1236
2017-11-16T09:26:25.741Z,1296
2017-11-16T09:27:06.355Z,1424
2017-11-16T09:27:46.934Z,1488
2017-11-16T09:28:27.563Z,1448
2017-11-16T09:29:08.144Z,1400
2017-11-16T09:29:48.746Z,1488
2017-11-16T09:30:29.336Z,1616
2017-11-16T09:31:09.947Z,1604
2017-11-16T09:31:50.530Z,1580
2017-11-16T09:32:31.124Z,1604
2017-11-16T09:33:11.697Z,1700
2017-11-16T09:33:52.283Z,1864
2017-11-16T09:34:32.865Z,1972
2017-11-16T09:35:13.469Z,1928
2017-11-16T09:35:54.046Z,1872
2017-11-16T09:36:34.622Z,1836
2017-11-16T09:37:15.210Z,1808
2017-11-16T09:37:55.794Z,1864
2017-11-16T09:38:36.372Z,1896
2017-11-16T09:39:16.961Z,1852
2017-11-16T09:39:57.539Z,1832
2017-11-16T09:40:38.104Z,1848
2017-11-16T09:41:18.677Z,1864
2017-11-16T09:41:59.265Z,1924
2017-11-16T09:42:39.860Z,1956
2017-11-16T09:43:20.428Z,1920
2017-11-16T09:44:01.023Z,1904
2017-11-16T09:44:41.607Z,1916
2017-11-16T09:45:22.185Z,2028
2017-11-16T09:46:02.779Z,2144
2017-11-16T09:46:43.352Z,2220
2017-11-16T09:47:23.932Z,2312
2017-11-16T09:48:04.509Z,2340
2017-11-16T09:48:45.065Z,2320
2017-11-16T09:49:25.633Z,2248
2017-11-16T09:50:06.220Z,2140